sensor_id;sensor_type;location;lat;lon;timestamp;pressure;altitude;pressure_sealevel;temperature;humidity
5691;BME280;2870;42.680;23.364;2024-01-06T00:01:25;94964.44;;;7.24;100.00
5691;BME280;2870;42.680;23.364;2024-01-06T00:03:52;94970.09;;;7.31;100.00
5691;BME280;2870;42.680;23.364;2024-01-06T00:06:19;94970.63;;;7.30;100.00
5691;BME280;2870;42.680;23.364;2024-01-06T00:08:46;94958.41;;;7.33;100.00
5691;BME280;2870;42.680;23.364;2024-01-06T00:11:19;94965.28;;;7.32;100.00
5691;BME280;2870;42.680;23.364;2024-01-06T00:13:45;94953.34;;;7.31;100.00
5691;BME280;2870;42.680;23.364;2024-01-06T00:16:16;94935.00;;;7.36;100.00
5691;BME280;2870;42.680;23.364;2024-01-06T00:18:43;94943.72;;;7.32;100.00
5691;BME280;2870;42.680;23.364;2024-01-06T00:21:10;94965.13;;;7.16;100.00
5691;BME280;2870;42.680;23.364;2024-01-06T00:23:36;94963.75;;;7.10;100.00
5691;BME280;2870;42.680;23.364;2024-01-06T00:26:03;94974.66;;;7.21;100.00
5691;BME280;2870;42.680;23.364;2024-01-06T00:28:30;94974.03;;;7.49;100.00
5691;BME280;2870;42.680;23.364;2024-01-06T00:30:57;94964.25;;;7.42;100.00
5691;BME280;2870;42.680;23.364;2024-01-06T00:33:25;94964.75;;;7.54;100.00
5691;BME280;2870;42.680;23.364;2024-01-06T00:35:52;94959.72;;;7.53;100.00
5691;BME280;2870;42.680;23.364;2024-01-06T00:38:20;94976.78;;;7.28;100.00
5691;BME280;2870;42.680;23.364;2024-01-06T00:40:47;94977.41;;;7.34;100.00
5691;BME280;2870;42.680;23.364;2024-01-06T00:43:14;94967.16;;;7.37;100.00
5691;BME280;2870;42.680;23.364;2024-01-06T00:45:40;94969.22;;;7.36;100.00
5691;BME280;2870;42.680;23.364;2024-01-06T00:48:07;94975.19;;;7.20;100.00
5691;BME280;2870;42.680;23.364;2024-01-06T00:50:35;94966.56;;;7.31;100.00
5691;BME280;2870;42.680;23.364;2024-01-06T00:53:02;94946.28;;;7.30;100.00
5691;BME280;2870;42.680;23.364;2024-01-06T00:55:29;94947.75;;;7.10;100.00
5691;BME280;2870;42.680;23.364;2024-01-06T00:57:56;94956.00;;;7.03;100.00
5691;BME280;2870;42.680;23.364;2024-01-06T01:00:22;94964.50;;;6.97;100.00
5691;BME280;2870;42.680;23.364;2024-01-06T01:02:49;94959.22;;;7.07;100.00
5691;BME280;2870;42.680;23.364;2024-01-06T01:05:16;94966.66;;;7.04;100.00
5691;BME280;2870;42.680;23.364;2024-01-06T01:07:44;94965.88;;;7.17;100.00
5691;BME280;2870;42.680;23.364;2024-01-06T01:10:11;94964.25;;;7.08;100.00
5691;BME280;2870;42.680;23.364;2024-01-06T01:12:38;94959.84;;;7.13;100.00
5691;BME280;2870;42.680;23.364;2024-01-06T01:15:06;94954.03;;;6.90;100.00
5691;BME280;2870;42.680;23.364;2024-01-06T01:17:33;94956.22;;;6.71;100.00
5691;BME280;2870;42.680;23.364;2024-01-06T01:20:00;94949.03;;;6.75;100.00
5691;BME280;2870;42.680;23.364;2024-01-06T01:22:26;94943.72;;;6.85;100.00
5691;BME280;2870;42.680;23.364;2024-01-06T01:24:54;94945.06;;;6.57;100.00
5691;BME280;2870;42.680;23.364;2024-01-06T01:27:21;94951.16;;;6.69;100.00
5691;BME280;2870;42.680;23.364;2024-01-06T01:29:48;94953.72;;;6.80;100.00
5691;BME280;2870;42.680;23.364;2024-01-06T01:32:18;94953.09;;;6.61;100.00
5691;BME280;2870;42.680;23.364;2024-01-06T01:34:45;94922.75;;;6.71;100.00
5691;BME280;2870;42.680;23.364;2024-01-06T01:37:12;94927.84;;;6.93;100.00
5691;BME280;2870;42.680;23.364;2024-01-06T01:39:38;94931.25;;;6.65;100.00
5691;BME280;2870;42.680;23.364;2024-01-06T01:42:07;94932.50;;;6.77;100.00
5691;BME280;2870;42.680;23.364;2024-01-06T01:44:33;94922.84;;;6.78;100.00
5691;BME280;2870;42.680;23.364;2024-01-06T01:47:00;94917.91;;;6.84;100.00
5691;BME280;2870;42.680;23.364;2024-01-06T01:49:27;94925.63;;;6.78;100.00
5691;BME280;2870;42.680;23.364;2024-01-06T01:51:54;94917.06;;;6.76;100.00
5691;BME280;2870;42.680;23.364;2024-01-06T01:54:21;94923.81;;;6.81;100.00
5691;BME280;2870;42.680;23.364;2024-01-06T01:56:48;94915.78;;;6.77;100.00
5691;BME280;2870;42.680;23.364;2024-01-06T01:59:17;94902.50;;;6.70;100.00
5691;BME280;2870;42.680;23.364;2024-01-06T02:01:44;94916.88;;;6.61;100.00
5691;BME280;2870;42.680;23.364;2024-01-06T02:04:12;94913.66;;;6.57;100.00
5691;BME280;2870;42.680;23.364;2024-01-06T02:06:39;94902.06;;;6.66;100.00
5691;BME280;2870;42.680;23.364;2024-01-06T02:09:06;94907.84;;;6.68;100.00
5691;BME280;2870;42.680;23.364;2024-01-06T02:11:32;94905.50;;;6.72;100.00
5691;BME280;2870;42.680;23.364;2024-01-06T02:13:59;94903.31;;;6.78;100.00
5691;BME280;2870;42.680;23.364;2024-01-06T02:16:27;94890.50;;;6.75;100.00
5691;BME280;2870;42.680;23.364;2024-01-06T02:18:54;94884.19;;;6.61;100.00
5691;BME280;2870;42.680;23.364;2024-01-06T02:21:23;94876.03;;;6.63;100.00
5691;BME280;2870;42.680;23.364;2024-01-06T02:23:51;94866.22;;;6.83;100.00
5691;BME280;2870;42.680;23.364;2024-01-06T02:26:18;94880.44;;;6.59;100.00
5691;BME280;2870;42.680;23.364;2024-01-06T02:28:45;94867.38;;;6.54;100.00
5691;BME280;2870;42.680;23.364;2024-01-06T02:31:13;94867.75;;;6.71;100.00
5691;BME280;2870;42.680;23.364;2024-01-06T02:33:40;94862.81;;;6.77;100.00
5691;BME280;2870;42.680;23.364;2024-01-06T02:36:07;94861.75;;;6.67;100.00
5691;BME280;2870;42.680;23.364;2024-01-06T02:38:34;94854.78;;;6.26;100.00
5691;BME280;2870;42.680;23.364;2024-01-06T02:41:02;94856.97;;;6.54;100.00
5691;BME280;2870;42.680;23.364;2024-01-06T02:43:29;94853.88;;;6.45;100.00
5691;BME280;2870;42.680;23.364;2024-01-06T02:45:55;94850.50;;;6.73;100.00
5691;BME280;2870;42.680;23.364;2024-01-06T02:48:22;94841.00;;;6.89;100.00
5691;BME280;2870;42.680;23.364;2024-01-06T02:50:49;94863.13;;;7.08;99.83
5691;BME280;2870;42.680;23.364;2024-01-06T02:53:16;94863.69;;;6.72;100.00
5691;BME280;2870;42.680;23.364;2024-01-06T02:55:42;94852.22;;;6.97;99.11
5691;BME280;2870;42.680;23.364;2024-01-06T02:58:10;94855.63;;;7.03;97.06
5691;BME280;2870;42.680;23.364;2024-01-06T03:03:07;94834.44;;;7.21;96.73
5691;BME280;2870;42.680;23.364;2024-01-06T03:05:34;94826.19;;;7.15;95.85
5691;BME280;2870;42.680;23.364;2024-01-06T03:08:02;94821.03;;;6.98;94.86
5691;BME280;2870;42.680;23.364;2024-01-06T03:10:29;94828.47;;;6.82;95.43
5691;BME280;2870;42.680;23.364;2024-01-06T03:12:56;94826.75;;;6.79;96.65
5691;BME280;2870;42.680;23.364;2024-01-06T03:15:25;94828.75;;;6.58;98.53
5691;BME280;2870;42.680;23.364;2024-01-06T03:17:52;94830.66;;;6.42;98.68
5691;BME280;2870;42.680;23.364;2024-01-06T03:20:18;94825.53;;;6.67;99.14
5691;BME280;2870;42.680;23.364;2024-01-06T03:22:45;94826.72;;;6.93;97.96
5691;BME280;2870;42.680;23.364;2024-01-06T03:25:12;94821.13;;;7.13;97.29
5691;BME280;2870;42.680;23.364;2024-01-06T03:27:39;94803.31;;;7.16;96.83
5691;BME280;2870;42.680;23.364;2024-01-06T03:30:06;94814.69;;;7.18;96.56
5691;BME280;2870;42.680;23.364;2024-01-06T03:32:35;94817.31;;;7.03;96.84
5691;BME280;2870;42.680;23.364;2024-01-06T03:35:01;94815.84;;;6.81;97.80
5691;BME280;2870;42.680;23.364;2024-01-06T03:37:28;94821.59;;;6.83;97.78
5691;BME280;2870;42.680;23.364;2024-01-06T03:39:55;94816.31;;;6.93;98.67
5691;BME280;2870;42.680;23.364;2024-01-06T03:42:22;94820.25;;;6.98;98.13
5691;BME280;2870;42.680;23.364;2024-01-06T03:44:48;94824.47;;;6.57;100.00
5691;BME280;2870;42.680;23.364;2024-01-06T03:47:15;94819.91;;;6.46;100.00
5691;BME280;2870;42.680;23.364;2024-01-06T03:49:44;94809.66;;;6.75;100.00
5691;BME280;2870;42.680;23.364;2024-01-06T03:52:11;94817.66;;;6.45;100.00
5691;BME280;2870;42.680;23.364;2024-01-06T03:54:39;94825.16;;;6.50;100.00
5691;BME280;2870;42.680;23.364;2024-01-06T03:57:06;94807.94;;;6.72;100.00
5691;BME280;2870;42.680;23.364;2024-01-06T03:59:32;94810.47;;;6.83;100.00
5691;BME280;2870;42.680;23.364;2024-01-06T04:01:59;94812.63;;;6.77;98.41
5691;BME280;2870;42.680;23.364;2024-01-06T04:04:26;94824.84;;;6.74;98.88
5691;BME280;2870;42.680;23.364;2024-01-06T04:06:54;94815.31;;;6.49;100.00
5691;BME280;2870;42.680;23.364;2024-01-06T04:09:21;94816.97;;;6.65;100.00
5691;BME280;2870;42.680;23.364;2024-01-06T04:11:47;94817.47;;;6.43;100.00
5691;BME280;2870;42.680;23.364;2024-01-06T04:14:14;94821.25;;;6.32;100.00
5691;BME280;2870;42.680;23.364;2024-01-06T04:16:41;94816.00;;;6.62;100.00
5691;BME280;2870;42.680;23.364;2024-01-06T04:19:07;94826.44;;;6.49;100.00
5691;BME280;2870;42.680;23.364;2024-01-06T04:21:36;94797.75;;;6.41;100.00
5691;BME280;2870;42.680;23.364;2024-01-06T04:24:05;94801.88;;;6.60;100.00
5691;BME280;2870;42.680;23.364;2024-01-06T04:26:32;94811.84;;;6.56;99.82
5691;BME280;2870;42.680;23.364;2024-01-06T04:28:58;94818.50;;;6.53;99.59
5691;BME280;2870;42.680;23.364;2024-01-06T04:31:25;94811.72;;;6.61;100.00
5691;BME280;2870;42.680;23.364;2024-01-06T04:33:52;94822.66;;;6.25;98.77
5691;BME280;2870;42.680;23.364;2024-01-06T04:36:19;94816.97;;;6.65;97.26
5691;BME280;2870;42.680;23.364;2024-01-06T04:38:45;94832.22;;;6.51;97.05
5691;BME280;2870;42.680;23.364;2024-01-06T04:41:13;94835.91;;;6.32;96.77
5691;BME280;2870;42.680;23.364;2024-01-06T04:43:40;94834.09;;;6.69;96.21
5691;BME280;2870;42.680;23.364;2024-01-06T04:46:07;94829.16;;;6.75;93.71
5691;BME280;2870;42.680;23.364;2024-01-06T04:48:34;94830.22;;;6.72;92.03
5691;BME280;2870;42.680;23.364;2024-01-06T04:51:00;94840.69;;;6.79;90.55
5691;BME280;2870;42.680;23.364;2024-01-06T04:53:28;94822.41;;;6.91;89.91
5691;BME280;2870;42.680;23.364;2024-01-06T04:55:55;94829.31;;;7.11;89.58
5691;BME280;2870;42.680;23.364;2024-01-06T04:58:23;94833.91;;;7.09;89.03
5691;BME280;2870;42.680;23.364;2024-01-06T05:00:50;94837.81;;;7.06;89.19
5691;BME280;2870;42.680;23.364;2024-01-06T05:03:17;94827.28;;;7.12;90.29
5691;BME280;2870;42.680;23.364;2024-01-06T05:05:44;94827.72;;;7.03;89.49
5691;BME280;2870;42.680;23.364;2024-01-06T05:08:11;94839.63;;;7.03;90.51
5691;BME280;2870;42.680;23.364;2024-01-06T05:10:37;94817.88;;;7.02;90.45
5691;BME280;2870;42.680;23.364;2024-01-06T05:13:04;94803.50;;;6.98;89.23
5691;BME280;2870;42.680;23.364;2024-01-06T05:15:32;94817.22;;;6.75;89.88
5691;BME280;2870;42.680;23.364;2024-01-06T05:17:59;94795.44;;;6.86;90.25
5691;BME280;2870;42.680;23.364;2024-01-06T05:20:26;94820.63;;;6.60;90.28
5691;BME280;2870;42.680;23.364;2024-01-06T05:22:53;94823.00;;;6.56;90.20
5691;BME280;2870;42.680;23.364;2024-01-06T05:25:19;94809.09;;;6.77;89.44
5691;BME280;2870;42.680;23.364;2024-01-06T05:27:46;94796.22;;;6.74;89.70
5691;BME280;2870;42.680;23.364;2024-01-06T05:30:13;94806.88;;;6.62;89.23
5691;BME280;2870;42.680;23.364;2024-01-06T05:32:41;94794.53;;;6.71;88.48
5691;BME280;2870;42.680;23.364;2024-01-06T05:35:08;94800.13;;;6.91;87.46
5691;BME280;2870;42.680;23.364;2024-01-06T05:37:35;94794.59;;;6.78;87.18
5691;BME280;2870;42.680;23.364;2024-01-06T05:40:02;94790.75;;;6.81;86.51
5691;BME280;2870;42.680;23.364;2024-01-06T05:42:30;94791.41;;;6.74;86.52
5691;BME280;2870;42.680;23.364;2024-01-06T05:44:58;94788.41;;;6.72;87.70
5691;BME280;2870;42.680;23.364;2024-01-06T05:47:25;94798.34;;;6.60;87.67
5691;BME280;2870;42.680;23.364;2024-01-06T05:49:53;94791.28;;;6.59;87.78
5691;BME280;2870;42.680;23.364;2024-01-06T05:52:19;94789.84;;;6.66;88.58
5691;BME280;2870;42.680;23.364;2024-01-06T05:54:46;94803.66;;;6.71;87.62
5691;BME280;2870;42.680;23.364;2024-01-06T05:57:13;94790.41;;;6.85;87.46
5691;BME280;2870;42.680;23.364;2024-01-06T05:59:40;94790.63;;;6.87;87.31
5691;BME280;2870;42.680;23.364;2024-01-06T06:02:07;94784.94;;;6.79;87.17
5691;BME280;2870;42.680;23.364;2024-01-06T06:04:33;94784.28;;;6.86;88.32
5691;BME280;2870;42.680;23.364;2024-01-06T06:07:02;94794.59;;;6.78;87.64
5691;BME280;2870;42.680;23.364;2024-01-06T06:09:29;94796.22;;;6.74;87.79
5691;BME280;2870;42.680;23.364;2024-01-06T06:11:56;94799.56;;;6.72;89.93
5691;BME280;2870;42.680;23.364;2024-01-06T06:14:23;94788.44;;;6.93;88.33
5691;BME280;2870;42.680;23.364;2024-01-06T06:16:49;94782.53;;;6.76;88.73
5691;BME280;2870;42.680;23.364;2024-01-06T06:19:16;94787.97;;;6.81;87.26
5691;BME280;2870;42.680;23.364;2024-01-06T06:21:43;94782.59;;;6.83;86.98
5691;BME280;2870;42.680;23.364;2024-01-06T06:24:11;94781.97;;;6.77;86.91
5691;BME280;2870;42.680;23.364;2024-01-06T06:26:39;94778.41;;;6.98;86.87
5691;BME280;2870;42.680;23.364;2024-01-06T06:29:05;94777.53;;;7.03;86.98
5691;BME280;2870;42.680;23.364;2024-01-06T06:31:32;94793.13;;;6.98;87.71
5691;BME280;2870;42.680;23.364;2024-01-06T06:33:59;94782.69;;;6.57;88.75
5691;BME280;2870;42.680;23.364;2024-01-06T06:36:26;94784.09;;;6.50;89.18
5691;BME280;2870;42.680;23.364;2024-01-06T06:38:52;94794.03;;;6.93;89.98
5691;BME280;2870;42.680;23.364;2024-01-06T06:41:21;94805.16;;;6.72;89.20
5691;BME280;2870;42.680;23.364;2024-01-06T06:43:48;94796.59;;;6.70;88.90
5691;BME280;2870;42.680;23.364;2024-01-06T06:46:14;94786.78;;;6.98;89.76
5691;BME280;2870;42.680;23.364;2024-01-06T06:48:41;94802.63;;;6.61;89.38
5691;BME280;2870;42.680;23.364;2024-01-06T06:51:08;94806.50;;;6.79;89.17
5691;BME280;2870;42.680;23.364;2024-01-06T06:53:36;94801.56;;;7.06;88.81
5691;BME280;2870;42.680;23.364;2024-01-06T06:56:03;94780.47;;;7.18;88.08
5691;BME280;2870;42.680;23.364;2024-01-06T06:58:31;94778.88;;;7.30;87.37
5691;BME280;2870;42.680;23.364;2024-01-06T07:00:58;94802.03;;;6.97;88.67
5691;BME280;2870;42.680;23.364;2024-01-06T07:03:26;94790.22;;;7.04;88.75
5691;BME280;2870;42.680;23.364;2024-01-06T07:05:53;94787.19;;;7.23;89.12
5691;BME280;2870;42.680;23.364;2024-01-06T07:08:19;94792.09;;;7.30;88.99
5691;BME280;2870;42.680;23.364;2024-01-06T07:10:46;94783.13;;;7.03;88.68
5691;BME280;2870;42.680;23.364;2024-01-06T07:13:13;94778.81;;;7.23;88.07
5691;BME280;2870;42.680;23.364;2024-01-06T07:15:41;94784.75;;;7.19;88.02
5691;BME280;2870;42.680;23.364;2024-01-06T07:18:08;94792.03;;;7.22;89.42
5691;BME280;2870;42.680;23.364;2024-01-06T07:20:35;94796.72;;;7.27;88.83
5691;BME280;2870;42.680;23.364;2024-01-06T07:23:02;94780.34;;;6.82;89.72
5691;BME280;2870;42.680;23.364;2024-01-06T07:25:29;94782.72;;;6.99;91.04
5691;BME280;2870;42.680;23.364;2024-01-06T07:27:56;94780.94;;;7.09;90.13
5691;BME280;2870;42.680;23.364;2024-01-06T07:30:23;94788.03;;;7.10;89.95
5691;BME280;2870;42.680;23.364;2024-01-06T07:32:52;94792.16;;;6.96;90.18
5691;BME280;2870;42.680;23.364;2024-01-06T07:35:18;94780.72;;;7.28;90.91
5691;BME280;2870;42.680;23.364;2024-01-06T07:37:45;94794.63;;;6.99;91.44
5691;BME280;2870;42.680;23.364;2024-01-06T07:40:12;94757.41;;;7.17;89.42
5691;BME280;2870;42.680;23.364;2024-01-06T07:42:41;94792.03;;;7.22;90.38
5691;BME280;2870;42.680;23.364;2024-01-06T07:45:09;94755.47;;;7.33;89.13
5691;BME280;2870;42.680;23.364;2024-01-06T07:47:36;94789.50;;;7.32;89.87
5691;BME280;2870;42.680;23.364;2024-01-06T07:50:05;94782.63;;;7.33;89.24
5691;BME280;2870;42.680;23.364;2024-01-06T07:52:32;94781.34;;;7.62;87.54
5691;BME280;2870;42.680;23.364;2024-01-06T07:54:59;94791.75;;;7.33;87.95
5691;BME280;2870;42.680;23.364;2024-01-06T07:57:26;94767.13;;;7.53;87.36
5691;BME280;2870;42.680;23.364;2024-01-06T07:59:52;94783.78;;;7.37;88.92
5691;BME280;2870;42.680;23.364;2024-01-06T08:02:19;94769.38;;;7.54;88.94
5691;BME280;2870;42.680;23.364;2024-01-06T08:04:46;94794.88;;;7.30;88.83
5691;BME280;2870;42.680;23.364;2024-01-06T08:07:14;94766.72;;;7.49;88.65
5691;BME280;2870;42.680;23.364;2024-01-06T08:09:41;94784.38;;;7.72;87.74
5691;BME280;2870;42.680;23.364;2024-01-06T08:12:08;94787.25;;;7.59;88.76
5691;BME280;2870;42.680;23.364;2024-01-06T08:14:34;94786.63;;;7.74;88.66
5691;BME280;2870;42.680;23.364;2024-01-06T08:17:01;94783.28;;;7.75;87.32
5691;BME280;2870;42.680;23.364;2024-01-06T08:19:28;94788.25;;;7.97;87.26
5691;BME280;2870;42.680;23.364;2024-01-06T08:21:57;94783.97;;;8.04;87.56
5691;BME280;2870;42.680;23.364;2024-01-06T08:24:25;94731.06;;;7.98;86.01
5691;BME280;2870;42.680;23.364;2024-01-06T08:26:52;94772.19;;;8.34;85.66
5691;BME280;2870;42.680;23.364;2024-01-06T08:29:19;94761.38;;;8.31;84.63
5691;BME280;2870;42.680;23.364;2024-01-06T08:31:46;94791.03;;;7.97;87.02
5691;BME280;2870;42.680;23.364;2024-01-06T08:34:12;94777.31;;;8.15;85.79
5691;BME280;2870;42.680;23.364;2024-01-06T08:36:41;94788.84;;;7.75;88.58
5691;BME280;2870;42.680;23.364;2024-01-06T08:39:07;94760.72;;;8.09;86.61
5691;BME280;2870;42.680;23.364;2024-01-06T08:41:36;94775.13;;;7.77;87.61
5691;BME280;2870;42.680;23.364;2024-01-06T08:44:03;94777.41;;;7.58;89.97
5691;BME280;2870;42.680;23.364;2024-01-06T08:46:30;94772.88;;;8.19;88.09
5691;BME280;2870;42.680;23.364;2024-01-06T08:48:57;94775.25;;;8.52;86.61
5691;BME280;2870;42.680;23.364;2024-01-06T08:51:23;94769.19;;;8.32;86.61
5691;BME280;2870;42.680;23.364;2024-01-06T08:53:51;94780.84;;;8.08;88.05
5691;BME280;2870;42.680;23.364;2024-01-06T08:56:18;94780.72;;;8.21;87.26
5691;BME280;2870;42.680;23.364;2024-01-06T08:58:47;94768.28;;;8.30;86.31
5691;BME280;2870;42.680;23.364;2024-01-06T09:01:13;94781.94;;;8.48;84.94
5691;BME280;2870;42.680;23.364;2024-01-06T09:03:40;94754.81;;;8.95;83.55
5691;BME280;2870;42.680;23.364;2024-01-06T09:06:07;94759.88;;;9.12;81.69
5691;BME280;2870;42.680;23.364;2024-01-06T09:08:34;94756.84;;;8.71;82.64
5691;BME280;2870;42.680;23.364;2024-01-06T09:11:00;94762.13;;;9.13;79.60
5691;BME280;2870;42.680;23.364;2024-01-06T09:13:27;94735.91;;;9.87;77.20
5691;BME280;2870;42.680;23.364;2024-01-06T09:15:55;94759.66;;;9.71;76.41
5691;BME280;2870;42.680;23.364;2024-01-06T09:18:22;94757.72;;;9.96;76.33
5691;BME280;2870;42.680;23.364;2024-01-06T09:20:49;94733.34;;;10.22;75.17
5691;BME280;2870;42.680;23.364;2024-01-06T09:23:16;94738.19;;;9.58;75.20
5691;BME280;2870;42.680;23.364;2024-01-06T09:25:43;94740.03;;;9.63;77.25
5691;BME280;2870;42.680;23.364;2024-01-06T09:28:09;94740.47;;;9.21;78.13
5691;BME280;2870;42.680;23.364;2024-01-06T09:30:37;94719.13;;;9.72;77.72
5691;BME280;2870;42.680;23.364;2024-01-06T09:33:05;94724.03;;;9.41;78.94
5691;BME280;2870;42.680;23.364;2024-01-06T09:35:33;94705.88;;;9.72;77.07
5691;BME280;2870;42.680;23.364;2024-01-06T09:38:00;94725.91;;;9.23;79.55
5691;BME280;2870;42.680;23.364;2024-01-06T09:40:27;94676.28;;;9.23;77.56
5691;BME280;2870;42.680;23.364;2024-01-06T09:42:57;94709.91;;;8.85;80.28
5691;BME280;2870;42.680;23.364;2024-01-06T09:45:24;94708.94;;;9.36;78.94
5691;BME280;2870;42.680;23.364;2024-01-06T09:47:51;94686.56;;;9.36;77.85
5691;BME280;2870;42.680;23.364;2024-01-06T09:50:20;94711.53;;;8.73;80.51
5691;BME280;2870;42.680;23.364;2024-01-06T09:52:48;94703.19;;;9.03;81.19
5691;BME280;2870;42.680;23.364;2024-01-06T09:55:23;94705.78;;;9.01;80.76
5691;BME280;2870;42.680;23.364;2024-01-06T09:57:50;94713.25;;;8.99;80.01
5691;BME280;2870;42.680;23.364;2024-01-06T10:00:18;94652.78;;;9.19;80.24
5691;BME280;2870;42.680;23.364;2024-01-06T10:02:45;94685.47;;;8.93;79.87
5691;BME280;2870;42.680;23.364;2024-01-06T10:05:15;94676.50;;;8.95;81.04
5691;BME280;2870;42.680;23.364;2024-01-06T10:07:43;94678.38;;;9.15;79.38
5691;BME280;2870;42.680;23.364;2024-01-06T10:10:10;94672.56;;;9.21;78.26
5691;BME280;2870;42.680;23.364;2024-01-06T10:12:37;94650.22;;;8.98;81.20
5691;BME280;2870;42.680;23.364;2024-01-06T10:15:05;94682.28;;;8.66;80.75
5691;BME280;2870;42.680;23.364;2024-01-06T10:17:32;94659.16;;;8.66;80.78
5691;BME280;2870;42.680;23.364;2024-01-06T10:19:59;94646.84;;;9.07;79.80
5691;BME280;2870;42.680;23.364;2024-01-06T10:22:26;94658.59;;;8.83;81.40
5691;BME280;2870;42.680;23.364;2024-01-06T10:24:56;94642.19;;;9.10;80.17
5691;BME280;2870;42.680;23.364;2024-01-06T10:27:23;94610.13;;;9.03;80.04
5691;BME280;2870;42.680;23.364;2024-01-06T10:29:49;94646.50;;;8.65;81.67
5691;BME280;2870;42.680;23.364;2024-01-06T10:32:16;94628.16;;;9.17;80.30
5691;BME280;2870;42.680;23.364;2024-01-06T10:34:44;94635.22;;;9.34;78.79
5691;BME280;2870;42.680;23.364;2024-01-06T10:37:10;94642.72;;;9.16;80.03
5691;BME280;2870;42.680;23.364;2024-01-06T10:39:37;94603.81;;;9.50;79.76
5691;BME280;2870;42.680;23.364;2024-01-06T10:42:06;94636.38;;;9.23;79.63
5691;BME280;2870;42.680;23.364;2024-01-06T10:44:33;94619.56;;;9.23;79.56
5691;BME280;2870;42.680;23.364;2024-01-06T10:47:03;94621.06;;;9.32;78.26
5691;BME280;2870;42.680;23.364;2024-01-06T10:49:30;94609.84;;;9.39;77.85
5691;BME280;2870;42.680;23.364;2024-01-06T10:51:58;94593.31;;;9.59;77.54
5691;BME280;2870;42.680;23.364;2024-01-06T10:54:27;94606.09;;;9.44;78.11
5691;BME280;2870;42.680;23.364;2024-01-06T10:56:56;94591.13;;;9.49;78.51
5691;BME280;2870;42.680;23.364;2024-01-06T10:59:26;94612.66;;;9.32;79.24
5691;BME280;2870;42.680;23.364;2024-01-06T11:01:56;94570.41;;;9.52;78.28
5691;BME280;2870;42.680;23.364;2024-01-06T11:04:23;94590.41;;;9.41;79.23
5691;BME280;2870;42.680;23.364;2024-01-06T11:06:51;94599.38;;;9.47;79.18
5691;BME280;2870;42.680;23.364;2024-01-06T11:09:21;94556.38;;;9.60;79.31
5691;BME280;2870;42.680;23.364;2024-01-06T11:11:49;94585.94;;;9.38;80.65
5691;BME280;2870;42.680;23.364;2024-01-06T11:14:17;94544.91;;;9.33;80.14
5691;BME280;2870;42.680;23.364;2024-01-06T11:16:46;94571.88;;;9.94;78.26
5691;BME280;2870;42.680;23.364;2024-01-06T11:19:44;94582.94;;;9.84;78.83
5691;BME280;2870;42.680;23.364;2024-01-06T11:22:24;94553.31;;;9.73;78.93
5691;BME280;2870;42.680;23.364;2024-01-06T11:24:52;94562.97;;;9.80;78.44
5691;BME280;2870;42.680;23.364;2024-01-06T11:27:23;94563.56;;;9.78;78.38
5691;BME280;2870;42.680;23.364;2024-01-06T11:29:52;94544.34;;;9.75;78.77
5691;BME280;2870;42.680;23.364;2024-01-06T11:32:26;94553.91;;;9.97;78.82
5691;BME280;2870;42.680;23.364;2024-01-06T11:34:53;94531.63;;;10.39;77.81
5691;BME280;2870;42.680;23.364;2024-01-06T11:37:25;94530.72;;;10.96;75.81
5691;BME280;2870;42.680;23.364;2024-01-06T11:39:52;94542.72;;;10.89;75.93
5691;BME280;2870;42.680;23.364;2024-01-06T11:42:19;94513.28;;;11.15;75.25
5691;BME280;2870;42.680;23.364;2024-01-06T11:44:50;94526.91;;;11.01;75.25
5691;BME280;2870;42.680;23.364;2024-01-06T11:47:18;94514.28;;;10.93;75.74
5691;BME280;2870;42.680;23.364;2024-01-06T11:49:54;94497.19;;;11.15;75.47
5691;BME280;2870;42.680;23.364;2024-01-06T11:52:24;94495.38;;;10.93;77.23
5691;BME280;2870;42.680;23.364;2024-01-06T11:54:52;94459.25;;;10.63;76.40
5691;BME280;2870;42.680;23.364;2024-01-06T11:57:20;94492.91;;;10.97;76.28
5691;BME280;2870;42.680;23.364;2024-01-06T11:59:47;94477.63;;;11.25;75.01
5691;BME280;2870;42.680;23.364;2024-01-06T12:02:17;94471.25;;;11.25;74.87
5691;BME280;2870;42.680;23.364;2024-01-06T12:04:49;94470.56;;;11.34;75.00
5691;BME280;2870;42.680;23.364;2024-01-06T12:07:17;94474.66;;;11.50;73.97
5691;BME280;2870;42.680;23.364;2024-01-06T12:09:45;94476.91;;;11.34;73.64
5691;BME280;2870;42.680;23.364;2024-01-06T12:12:15;94440.59;;;10.92;75.17
5691;BME280;2870;42.680;23.364;2024-01-06T12:14:42;94453.34;;;11.20;75.26
5691;BME280;2870;42.680;23.364;2024-01-06T12:17:09;94424.13;;;11.23;74.36
5691;BME280;2870;42.680;23.364;2024-01-06T12:19:38;94383.66;;;10.82;74.08
5691;BME280;2870;42.680;23.364;2024-01-06T12:22:10;94434.47;;;11.03;74.64
5691;BME280;2870;42.680;23.364;2024-01-06T12:24:38;94425.38;;;11.12;74.35
5691;BME280;2870;42.680;23.364;2024-01-06T12:27:06;94449.38;;;11.23;74.13
5691;BME280;2870;42.680;23.364;2024-01-06T12:29:37;94460.56;;;10.96;77.45
5691;BME280;2870;42.680;23.364;2024-01-06T12:32:05;94478.63;;;11.03;77.23
5691;BME280;2870;42.680;23.364;2024-01-06T12:34:33;94470.81;;;10.84;76.48
5691;BME280;2870;42.680;23.364;2024-01-06T12:37:00;94424.91;;;10.54;76.67
5691;BME280;2870;42.680;23.364;2024-01-06T12:39:30;94443.06;;;10.71;78.00
5691;BME280;2870;42.680;23.364;2024-01-06T12:41:57;94451.72;;;10.65;79.09
5691;BME280;2870;42.680;23.364;2024-01-06T12:44:25;94452.97;;;10.72;78.67
5691;BME280;2870;42.680;23.364;2024-01-06T12:46:52;94456.03;;;10.83;78.37
5691;BME280;2870;42.680;23.364;2024-01-06T12:49:19;94450.16;;;10.72;78.96
5691;BME280;2870;42.680;23.364;2024-01-06T12:51:46;94430.50;;;10.89;77.67
5691;BME280;2870;42.680;23.364;2024-01-06T12:54:12;94418.91;;;11.20;77.23
5691;BME280;2870;42.680;23.364;2024-01-06T12:56:40;94418.25;;;11.11;76.57
5691;BME280;2870;42.680;23.364;2024-01-06T12:59:07;94423.19;;;11.21;76.22
5691;BME280;2870;42.680;23.364;2024-01-06T13:01:34;94422.97;;;11.09;77.14
5691;BME280;2870;42.680;23.364;2024-01-06T13:04:01;94413.53;;;11.31;75.68
5691;BME280;2870;42.680;23.364;2024-01-06T13:06:27;94389.88;;;11.34;75.05
5691;BME280;2870;42.680;23.364;2024-01-06T15:09:38;94375.59;;;10.51;86.96
5691;BME280;2870;42.680;23.364;2024-01-06T15:12:05;94370.34;;;10.55;86.43
5691;BME280;2870;42.680;23.364;2024-01-06T15:14:32;94372.06;;;10.51;86.77
5691;BME280;2870;42.680;23.364;2024-01-06T15:16:59;94358.09;;;10.43;86.82
5691;BME280;2870;42.680;23.364;2024-01-06T15:19:26;94358.34;;;10.38;86.97
5691;BME280;2870;42.680;23.364;2024-01-06T15:21:55;94357.13;;;10.31;87.38